Time,TemperatureF,DewpointF,PressureIn,WindDirection,WindDirectionDegrees,WindSpeedMPH,WindSpeedGustMPH,Humidity,HourlyPrecipIn,Conditions,Clouds,dailyrainin,SoftwareType,DateUTC
2015-09-05 00:00:00,68.8,65.1,29.91,SSE,158,0.2,0.7,88,0.00,,,0.00,WUHU216HW,2015-09-05 05:00:00,
2015-09-05 00:05:00,68.8,65.1,29.91,NE,45,0.4,0.9,88,0.00,,,0.00,WUHU216HW,2015-09-05 05:05:00,
2015-09-05 00:10:00,68.6,64.9,29.91,NE,45,0.0,0.9,88,0.00,,,0.00,WUHU216HW,2015-09-05 05:10:00,
2015-09-05 00:15:00,68.4,65.0,29.91,ENE,68,0.2,0.4,89,0.00,,,0.00,WUHU216HW,2015-09-05 05:15:00,
2015-09-05 00:20:00,68.2,64.5,29.91,NE,45,0.4,0.4,88,0.00,,,0.00,WUHU216HW,2015-09-05 05:20:00,
2015-09-05 00:25:00,68.0,64.6,29.91,NE,45,0.4,0.4,89,0.00,,,0.00,WUHU216HW,2015-09-05 05:25:00,
2015-09-05 00:30:00,68.0,64.6,29.91,ESE,113,0.0,0.4,89,0.00,,,0.00,WUHU216HW,2015-09-05 05:30:00,
2015-09-05 00:35:00,67.9,64.4,29.91,NE,45,0.2,1.1,89,0.00,,,0.00,WUHU216HW,2015-09-05 05:35:00,
2015-09-05 00:40:00,67.9,64.4,29.91,East,90,0.0,1.1,89,0.00,,,0.00,WUHU216HW,2015-09-05 05:40:00,
2015-09-05 00:50:00,67.7,64.3,29.91,North,0,0.4,0.4,89,0.00,,,0.00,WUHU216HW,2015-09-05 05:50:00,
2015-09-05 00:55:00,67.7,64.3,29.91,North,0,0.0,0.4,89,0.00,,,0.00,WUHU216HW,2015-09-05 05:55:00,
2015-09-05 01:00:00,67.5,64.4,29.91,North,0,0.0,0.4,90,0.00,,,0.00,WUHU216HW,2015-09-05 06:00:00,
2015-09-05 01:05:00,67.5,64.1,29.91,North,0,0.0,0.4,89,0.00,,,0.00,WUHU216HW,2015-09-05 06:05:00,
2015-09-05 01:10:00,67.5,64.4,29.91,North,0,0.0,0.4,90,0.00,,,0.00,WUHU216HW,2015-09-05 06:10:00,
2015-09-05 01:15:00,67.5,64.4,29.91,NNE,23,0.0,0.4,90,0.00,,,0.00,WUHU216HW,2015-09-05 06:15:00,
2015-09-05 01:20:00,67.5,64.4,29.91,NNE,23,0.0,0.4,90,0.00,,,0.00,WUHU216HW,2015-09-05 06:20:00,
2015-09-05 01:25:00,67.5,64.4,29.91,NE,45,0.2,0.4,90,0.00,,,0.00,WUHU216HW,2015-09-05 06:25:00,
2015-09-05 01:30:00,67.5,64.4,29.91,NE,45,0.0,0.4,90,0.00,,,0.00,WUHU216HW,2015-09-05 06:30:00,
2015-09-05 01:35:00,67.5,64.4,29.91,ESE,113,0.2,0.7,90,0.00,,,0.00,WUHU216HW,2015-09-05 06:35:00,
2015-09-05 01:40:00,67.5,64.4,29.91,SE,135,0.7,1.1,90,0.00,,,0.00,WUHU216HW,2015-09-05 06:40:00,
2015-09-05 01:45:00,67.5,64.4,29.91,NE,45,0.0,1.1,90,0.00,,,0.00,WUHU216HW,2015-09-05 06:45:00,
2015-09-05 01:50:00,67.5,64.4,29.91,North,0,0.2,0.7,90,0.00,,,0.00,WUHU216HW,2015-09-05 06:50:00,
2015-09-05 01:55:00,67.5,64.4,29.90,North,0,0.0,0.4,90,0.00,,,0.00,WUHU216HW,2015-09-05 06:55:00,
2015-09-05 02:00:00,67.3,64.3,29.91,NE,45,0.0,0.4,90,0.00,,,0.00,WUHU216HW,2015-09-05 07:00:00,
2015-09-05 02:05:00,67.3,64.3,29.91,South,180,1.1,1.1,90,0.00,,,0.00,WUHU216HW,2015-09-05 07:05:00,
2015-09-05 02:10:00,67.3,64.3,29.91,South,180,0.0,1.1,90,0.00,,,0.00,WUHU216HW,2015-09-05 07:10:00,
2015-09-05 02:15:00,67.3,64.3,29.90,North,0,0.7,0.7,90,0.00,,,0.00,WUHU216HW,2015-09-05 07:15:00,
2015-09-05 02:20:00,67.3,64.3,29.90,NNE,23,0.4,1.1,90,0.00,,,0.00,WUHU216HW,2015-09-05 07:20:00,
2015-09-05 02:25:00,67.1,64.1,29.90,NNE,23,0.0,1.1,90,0.00,,,0.00,WUHU216HW,2015-09-05 07:25:00,
2015-09-05 02:30:00,67.1,64.1,29.90,North,0,0.0,0.4,90,0.00,,,0.00,WUHU216HW,2015-09-05 07:30:00,
2015-09-05 02:35:00,67.1,64.1,29.90,SW,225,0.4,0.4,90,0.00,,,0.00,WUHU216HW,2015-09-05 07:35:00,
2015-09-05 02:40:00,67.0,63.9,29.89,WSW,248,0.4,0.4,90,0.00,,,0.00,WUHU216HW,2015-09-05 07:40:00,
2015-09-05 02:45:00,67.0,63.9,29.89,SW,225,0.0,0.4,90,0.00,,,0.00,WUHU216HW,2015-09-05 07:45:00,
2015-09-05 02:50:00,66.8,63.7,29.90,SW,225,0.0,0.4,90,0.00,,,0.00,WUHU216HW,2015-09-05 07:50:00,
2015-09-05 02:55:00,66.8,64.0,29.90,NW,315,0.7,0.7,91,0.00,,,0.00,WUHU216HW,2015-09-05 07:55:00,
2015-09-05 03:00:00,66.8,64.0,29.90,NW,315,0.0,0.7,91,0.00,,,0.00,WUHU216HW,2015-09-05 08:00:00,
2015-09-05 03:05:00,66.6,63.8,29.90,NW,315,0.0,0.7,91,0.00,,,0.00,WUHU216HW,2015-09-05 08:05:00,
2015-09-05 03:10:00,66.8,64.0,29.90,NW,315,0.0,0.4,91,0.00,,,0.00,WUHU216HW,2015-09-05 08:10:00,
2015-09-05 03:15:00,66.6,63.8,29.90,NW,315,0.2,0.4,91,0.00,,,0.00,WUHU216HW,2015-09-05 08:15:00,
2015-09-05 03:20:00,66.6,63.8,29.90,NE,45,0.7,0.7,91,0.00,,,0.00,WUHU216HW,2015-09-05 08:20:00,
2015-09-05 03:25:00,66.8,64.0,29.90,NNE,23,0.4,0.7,91,0.00,,,0.00,WUHU216HW,2015-09-05 08:25:00,
2015-09-05 03:30:00,66.6,63.8,29.90,NNE,23,0.0,0.7,91,0.00,,,0.00,WUHU216HW,2015-09-05 08:30:00,
2015-09-05 03:35:00,66.6,63.8,29.90,NNE,23,0.0,0.0,91,0.00,,,0.00,WUHU216HW,2015-09-05 08:35:00,
2015-09-05 03:40:00,66.6,63.8,29.90,ENE,68,0.2,0.9,91,0.00,,,0.00,WUHU216HW,2015-09-05 08:40:00,
2015-09-05 03:45:00,66.6,63.8,29.90,ENE,68,0.0,0.9,91,0.00,,,0.00,WUHU216HW,2015-09-05 08:45:00,
2015-09-05 03:50:00,66.6,63.8,29.90,ENE,68,0.0,0.2,91,0.00,,,0.00,WUHU216HW,2015-09-05 08:50:00,
2015-09-05 03:55:00,66.6,63.8,29.90,NNE,23,0.4,1.1,91,0.00,,,0.00,WUHU216HW,2015-09-05 08:55:00,
2015-09-05 04:00:00,66.4,63.6,29.91,NNE,23,0.2,1.1,91,0.00,,,0.00,WUHU216HW,2015-09-05 09:00:00,
2015-09-05 04:05:00,66.4,63.6,29.90,NNE,23,0.4,1.3,91,0.00,,,0.00,WUHU216HW,2015-09-05 09:05:00,
2015-09-05 04:10:00,66.2,63.5,29.90,East,90,0.4,1.3,91,0.00,,,0.00,WUHU216HW,2015-09-05 09:10:00,
2015-09-05 04:15:00,66.2,63.5,29.90,NNE,23,0.7,1.3,91,0.00,,,0.00,WUHU216HW,2015-09-05 09:15:00,
2015-09-05 04:20:00,66.2,63.5,29.91,North,0,0.4,1.8,91,0.00,,,0.00,WUHU216HW,2015-09-05 09:20:00,
2015-09-05 04:25:00,66.2,63.5,29.91,North,0,1.3,1.8,91,0.00,,,0.00,WUHU216HW,2015-09-05 09:25:00,
2015-09-05 04:30:00,66.2,63.5,29.91,WSW,248,0.0,1.8,91,0.00,,,0.00,WUHU216HW,2015-09-05 09:30:00,
2015-09-05 04:35:00,66.1,63.4,29.91,NNE,23,1.1,1.3,91,0.00,,,0.00,WUHU216HW,2015-09-05 09:35:00,
2015-09-05 04:40:00,66.1,63.4,29.91,NNE,23,0.0,1.3,91,0.00,,,0.00,WUHU216HW,2015-09-05 09:40:00,
2015-09-05 04:45:00,65.9,63.2,29.91,North,0,0.2,1.1,91,0.00,,,0.00,WUHU216HW,2015-09-05 09:45:00,
2015-09-05 04:50:00,65.9,63.2,29.91,North,0,0.0,0.9,91,0.00,,,0.00,WUHU216HW,2015-09-05 09:50:00,
2015-09-05 04:55:00,65.7,63.0,29.91,North,0,0.0,0.2,91,0.00,,,0.00,WUHU216HW,2015-09-05 09:55:00,
2015-09-05 05:00:00,65.7,62.7,29.92,North,0,0.0,0.0,90,0.00,,,0.00,WUHU216HW,2015-09-05 10:00:00,
2015-09-05 05:05:00,65.7,62.7,29.92,North,0,0.0,0.0,90,0.00,,,0.00,WUHU216HW,2015-09-05 10:05:00,
2015-09-05 05:10:00,65.5,62.6,29.92,North,0,0.0,0.0,90,0.00,,,0.00,WUHU216HW,2015-09-05 10:10:00,
2015-09-05 05:20:00,65.5,62.8,29.92,North,0,0.0,0.0,91,0.00,,,0.00,WUHU216HW,2015-09-05 10:20:00,
2015-09-05 05:25:00,65.5,62.8,29.92,North,0,0.4,0.4,91,0.00,,,0.00,WUHU216HW,2015-09-05 10:25:00,
2015-09-05 05:30:00,65.5,62.8,29.92,North,0,0.0,0.4,91,0.00,,,0.00,WUHU216HW,2015-09-05 10:30:00,
2015-09-05 05:35:00,65.3,62.6,29.92,North,0,0.0,0.4,91,0.00,,,0.00,WUHU216HW,2015-09-05 10:35:00,
2015-09-05 05:40:00,65.3,62.6,29.93,North,0,0.4,0.7,91,0.00,,,0.00,WUHU216HW,2015-09-05 10:40:00,
2015-09-05 05:45:00,65.2,62.5,29.93,North,0,0.0,0.7,91,0.00,,,0.00,WUHU216HW,2015-09-05 10:45:00,
2015-09-05 05:50:00,65.2,62.5,29.93,North,0,0.0,0.4,91,0.00,,,0.00,WUHU216HW,2015-09-05 10:50:00,
2015-09-05 05:55:00,65.2,62.5,29.93,North,0,0.0,0.0,91,0.00,,,0.00,WUHU216HW,2015-09-05 10:55:00,
2015-09-05 06:00:00,65.2,62.5,29.93,NW,315,0.0,1.3,91,0.00,,,0.00,WUHU216HW,2015-09-05 11:00:00,
2015-09-05 06:05:00,65.0,62.4,29.93,NNE,23,0.4,1.3,91,0.00,,,0.00,WUHU216HW,2015-09-05 11:05:00,
2015-09-05 06:15:00,65.0,62.4,29.93,North,0,0.4,1.1,91,0.00,,,0.00,WUHU216HW,2015-09-05 11:15:00,
2015-09-05 06:20:00,65.0,62.4,29.93,North,0,0.0,0.7,91,0.00,,,0.00,WUHU216HW,2015-09-05 11:20:00,
2015-09-05 06:25:00,65.0,62.4,29.93,NNW,338,0.0,0.0,91,0.00,,,0.00,WUHU216HW,2015-09-05 11:25:00,
2015-09-05 06:30:00,65.0,62.4,29.93,NW,315,0.7,0.7,91,0.00,,,0.00,WUHU216HW,2015-09-05 11:30:00,
2015-09-05 06:35:00,65.0,62.4,29.93,NW,315,0.0,0.7,91,0.00,,,0.00,WUHU216HW,2015-09-05 11:35:00,
2015-09-05 06:40:00,65.0,62.4,29.92,NW,315,0.0,0.7,91,0.00,,,0.00,WUHU216HW,2015-09-05 11:40:00,
2015-09-05 06:45:00,65.0,62.4,29.93,NW,315,0.0,0.0,91,0.00,,,0.00,WUHU216HW,2015-09-05 11:45:00,
2015-09-05 06:50:00,65.2,62.5,29.92,NW,315,0.0,0.0,91,0.00,,,0.00,WUHU216HW,2015-09-05 11:50:00,
2015-09-05 06:55:00,65.3,62.6,29.93,NW,315,0.0,0.0,91,0.00,,,0.00,WUHU216HW,2015-09-05 11:55:00,
2015-09-05 07:00:00,65.5,62.8,29.93,WSW,248,0.0,0.4,91,0.00,,,0.00,WUHU216HW,2015-09-05 12:00:00,
2015-09-05 07:05:00,65.7,63.3,29.94,WSW,248,0.0,0.4,92,0.00,,,0.00,WUHU216HW,2015-09-05 12:05:00,
2015-09-05 07:10:00,65.9,63.2,29.94,SW,225,0.7,1.1,91,0.00,,,0.00,WUHU216HW,2015-09-05 12:10:00,
2015-09-05 07:15:00,65.9,63.5,29.92,SW,225,0.7,1.3,92,0.00,,,0.00,WUHU216HW,2015-09-05 12:15:00,
2015-09-05 07:20:00,66.1,63.6,29.92,SW,225,0.9,2.0,92,0.00,,,0.00,WUHU216HW,2015-09-05 12:20:00,
2015-09-05 07:25:00,66.1,63.6,29.92,SW,225,1.1,2.2,92,0.00,,,0.00,WUHU216HW,2015-09-05 12:25:00,
2015-09-05 07:30:00,66.2,64.1,29.92,SSW,203,2.0,2.2,93,0.00,,,0.00,WUHU216HW,2015-09-05 12:30:00,
2015-09-05 07:35:00,66.4,64.0,29.92,SSW,203,3.1,3.4,92,0.00,,,0.00,WUHU216HW,2015-09-05 12:35:00,
2015-09-05 07:40:00,66.6,64.2,29.92,SSW,203,0.7,3.4,92,0.00,,,0.00,WUHU216HW,2015-09-05 12:40:00,
2015-09-05 07:45:00,67.0,64.5,29.93,SW,225,0.0,2.2,92,0.00,,,0.00,WUHU216HW,2015-09-05 12:45:00,
2015-09-05 07:50:00,67.1,64.7,29.93,NNE,23,0.4,1.8,92,0.00,,,0.00,WUHU216HW,2015-09-05 12:50:00,
2015-09-05 07:55:00,67.3,64.9,29.93,SE,135,0.4,0.9,92,0.00,,,0.00,WUHU216HW,2015-09-05 12:55:00,
2015-09-05 08:00:00,67.5,65.1,29.93,NW,315,0.0,1.1,92,0.00,,,0.00,WUHU216HW,2015-09-05 13:00:00,
2015-09-05 08:05:00,67.7,65.5,29.93,NNE,23,0.4,1.3,93,0.00,,,0.00,WUHU216HW,2015-09-05 13:05:00,
2015-09-05 08:10:00,67.9,65.7,29.93,North,0,0.9,1.3,93,0.00,,,0.00,WUHU216HW,2015-09-05 13:10:00,
2015-09-05 08:20:00,68.0,65.9,29.93,NNW,338,0.0,0.7,93,0.00,,,0.00,WUHU216HW,2015-09-05 13:20:00,
2015-09-05 08:25:00,68.4,66.0,29.92,NNE,23,1.1,1.1,92,0.00,,,0.00,WUHU216HW,2015-09-05 13:25:00,
2015-09-05 08:30:00,68.8,66.3,29.92,South,180,2.5,2.5,92,0.00,,,0.00,WUHU216HW,2015-09-05 13:30:00,
2015-09-05 08:35:00,69.1,66.7,29.92,WNW,293,1.6,2.5,92,0.00,,,0.00,WUHU216HW,2015-09-05 13:35:00,
2015-09-05 08:40:00,69.5,67.1,29.92,NE,45,0.0,1.8,92,0.00,,,0.00,WUHU216HW,2015-09-05 13:40:00,
2015-09-05 08:45:00,69.8,67.4,29.93,SSW,203,0.9,1.8,92,0.00,,,0.00,WUHU216HW,2015-09-05 13:45:00,
2015-09-05 08:50:00,70.2,67.8,29.93,NW,315,0.4,1.1,92,0.00,,,0.00,WUHU216HW,2015-09-05 13:50:00,
2015-09-05 08:55:00,70.6,67.8,29.93,SSW,203,0.4,1.8,91,0.00,,,0.00,WUHU216HW,2015-09-05 13:55:00,
2015-09-05 09:00:00,70.9,68.1,29.93,WSW,248,0.7,1.8,91,0.00,,,0.00,WUHU216HW,2015-09-05 14:00:00,
2015-09-05 09:05:00,71.3,68.5,29.93,South,180,0.4,1.8,91,0.00,,,0.00,WUHU216HW,2015-09-05 14:05:00,
2015-09-05 09:10:00,71.8,69.0,29.93,WNW,293,0.0,1.8,91,0.00,,,0.00,WUHU216HW,2015-09-05 14:10:00,
2015-09-05 09:15:00,72.4,69.3,29.92,SSE,158,1.6,1.6,90,0.00,,,0.00,WUHU216HW,2015-09-05 14:15:00,
2015-09-05 09:20:00,73.1,70.0,29.93,South,180,1.1,2.2,90,0.00,,,0.00,WUHU216HW,2015-09-05 14:20:00,
2015-09-05 09:25:00,73.6,70.8,29.92,SSE,158,1.3,2.2,91,0.00,,,0.00,WUHU216HW,2015-09-05 14:25:00,
2015-09-05 09:30:00,74.2,70.7,29.93,NNE,23,0.7,1.6,89,0.00,,,0.00,WUHU216HW,2015-09-05 14:30:00,
2015-09-05 09:35:00,74.5,71.1,29.93,SSE,158,0.2,0.9,89,0.00,,,0.00,WUHU216HW,2015-09-05 14:35:00,
2015-09-05 09:40:00,75.1,70.7,29.92,SSE,158,0.4,2.0,86,0.00,,,0.00,WUHU216HW,2015-09-05 14:40:00,
2015-09-05 09:45:00,75.4,71.4,29.93,WSW,248,0.2,2.0,87,0.00,,,0.00,WUHU216HW,2015-09-05 14:45:00,
2015-09-05 09:50:00,75.8,71.6,29.93,ENE,68,0.7,0.7,87,0.00,,,0.00,WUHU216HW,2015-09-05 14:50:00,
2015-09-05 09:55:00,75.8,71.6,29.93,SSE,158,0.0,0.7,87,0.00,,,0.00,WUHU216HW,2015-09-05 14:55:00,
2015-09-05 10:00:00,75.6,71.5,29.93,SSW,203,0.4,0.7,87,0.00,,,0.00,WUHU216HW,2015-09-05 15:00:00,
2015-09-05 10:05:00,75.6,71.2,29.93,SSE,158,0.2,0.7,86,0.00,,,0.00,WUHU216HW,2015-09-05 15:05:00,
2015-09-05 10:10:00,75.6,71.2,29.94,SE,135,0.0,0.2,86,0.00,,,0.00,WUHU216HW,2015-09-05 15:10:00,